Terminal Aerodrome Forecast
Issued by NWS

Home | Current Version | Previous Version | Text Only | Print | Product List | Glossary On
Versions: 1 2 3 4 5 6 7 8 9 10 11 12 13
000
FTUS45 KREV 251100
TAFTVL
TAF
KTVL 251121Z 2512/2612 18012G22KT P6SM SCT180
     FM251600 20022G34KT P6SM VCSH SCT040 BKN060 OVC100
     FM252000 20015G23KT P6SM -SHRA SCT025 BKN040
     FM260200 20011KT P6SM VCSH SCT035 BKN070=

USA.gov is the U.S. government's official web portal to all federal, state and local government web resources and services.